Time;durP1;ratioP1;P1;durP2;ratioP2;P2;SDS_P1;SDS_P2;PMS_P1;PMS_P2;Temp;Humidity;BMP_temperature;BMP_pressure;BME280_temperature;BME280_humidity;BME280_pressure;Samples;Min_cycle;Max_cycle;Signal;HPM_P1;HPM_P2
2022/08/16 00:00:07;;;;;;;;;;;21.40;99.90;;;;;;6123790;23;20040;-96
2022/08/16 00:02:54;;;;;;;;;;;21.50;99.90;;;;;;6117458;23;19968;-96
2022/08/16 00:05:22;;;;;;;;;;;21.40;99.90;;;;;;6097765;23;20003;-96
2022/08/16 00:08:03;;;;;;;;;;;21.40;99.90;;;;;;6127474;23;19931;-96
2022/08/16 00:10:46;;;;;;;;;;;21.30;99.90;;;;;;6063098;23;19922;-96
2022/08/16 00:13:12;;;;;;;;;;;21.40;99.90;;;;;;6059190;23;19918;-96
2022/08/16 00:15:54;;;;;;;;;;;21.50;99.90;;;;;;6004798;23;19977;-95
2022/08/16 00:18:45;;;;;;;;;;;21.40;99.90;;;;;;5984192;23;20320;-96
2022/08/16 00:21:23;;;;;;;;;;;21.40;99.90;;;;;;5986306;23;19946;-96
2022/08/16 00:24:02;;;;;;;;;;;21.40;99.90;;;;;;5940741;23;19923;-96
2022/08/16 00:26:47;;;;;;;;;;;21.30;99.90;;;;;;5963615;23;20375;-96
2022/08/16 00:29:31;;;;;;;;;;;21.20;99.90;;;;;;5966283;23;20057;-96
2022/08/16 00:32:03;;;;;;;;;;;21.30;99.90;;;;;;5965207;24;19985;-96
2022/08/16 00:34:50;;;;;;;;;;;21.30;99.90;;;;;;5963125;24;19922;-96
2022/08/16 00:37:17;;;;;;;;;;;21.30;99.90;;;;;;5926058;24;20480;-96
2022/08/16 00:39:43;;;;;;;;;;;21.30;99.90;;;;;;5947218;24;19922;-96
2022/08/16 00:42:10;;;;;;;;;;;21.30;99.90;;;;;;5944223;23;19922;-96
2022/08/16 00:44:37;;;;;;;;;;;21.20;99.90;;;;;;5971121;23;20330;-96
2022/08/16 00:47:15;;;;;;;;;;;21.20;99.90;;;;;;5992914;23;19922;-96
2022/08/16 00:49:58;;;;;;;;;;;21.20;99.90;;;;;;5981960;23;19922;-96
2022/08/16 00:52:37;;;;;;;;;;;21.20;99.90;;;;;;6005037;23;20064;-96
2022/08/16 00:55:04;;;;;;;;;;;21.20;99.90;;;;;;5984213;23;19989;-96
2022/08/16 00:57:33;;;;;;;;;;;21.10;99.90;;;;;;6009919;23;19926;-96
2022/08/16 01:00:08;;;;;;;;;;;21.10;99.90;;;;;;6015182;23;19922;-96
2022/08/16 01:02:35;;;;;;;;;;;21.10;99.90;;;;;;6017075;23;19921;-96
2022/08/16 01:05:03;;;;;;;;;;;21.10;99.90;;;;;;6098894;23;19921;-96
2022/08/16 01:07:36;;;;;;;;;;;21.00;99.90;;;;;;6095723;23;20218;-96
2022/08/16 01:10:15;;;;;;;;;;;21.10;99.90;;;;;;6102604;23;19956;-96
2022/08/16 01:13:02;;;;;;;;;;;21.00;99.90;;;;;;6097408;23;19917;-96
2022/08/16 01:15:49;;;;;;;;;;;21.10;99.90;;;;;;6079890;23;19925;-96
2022/08/16 01:18:40;;;;;;;;;;;21.00;99.90;;;;;;6122891;23;19941;-96
2022/08/16 01:21:24;;;;;;;;;;;21.00;99.90;;;;;;6113090;23;19927;-96
2022/08/16 01:24:10;;;;;;;;;;;20.90;99.90;;;;;;6160379;23;19916;-96
2022/08/16 01:26:37;;;;;;;;;;;20.90;99.90;;;;;;6158060;23;20322;-96
2022/08/16 01:29:08;;;;;;;;;;;21.00;99.90;;;;;;6160019;23;20491;-96
2022/08/16 01:31:51;;;;;;;;;;;;;;;;;;;;;
2022/08/16 01:34:20;;;;;;;;;;;21.00;99.90;;;;;;6132368;23;19966;-96
2022/08/16 01:36:47;;;;;;;;;;;21.00;99.90;;;;;;6130357;23;20707;-96
2022/08/16 01:39:19;;;;;;;;;;;20.90;99.90;;;;;;6127394;23;19920;-96
2022/08/16 01:41:48;;;;;;;;;;;21.00;99.90;;;;;;6156206;23;19926;-96
2022/08/16 01:44:16;;;;;;;;;;;21.00;99.90;;;;;;6124518;23;19920;-96
2022/08/16 01:46:56;;;;;;;;;;;21.00;99.90;;;;;;6134090;23;19916;-96
2022/08/16 01:49:36;;;;;;;;;;;20.90;99.90;;;;;;6131953;23;19916;-96
2022/08/16 01:52:15;;;;;;;;;;;21.00;99.90;;;;;;6136348;23;19916;-96
2022/08/16 01:54:55;;;;;;;;;;;20.90;99.90;;;;;;6136723;23;19927;-96
2022/08/16 01:57:26;;;;;;;;;;;20.90;99.90;;;;;;6154049;23;19924;-96
2022/08/16 01:59:56;;;;;;;;;;;20.90;99.90;;;;;;6134303;23;19920;-96
2022/08/16 02:02:23;;;;;;;;;;;20.90;99.90;;;;;;6131786;23;20296;-96
2022/08/16 02:07:42;;;;;;;;;;;20.80;99.90;;;;;;6133925;23;20239;-96
2022/08/16 02:10:10;;;;;;;;;;;20.80;99.90;;;;;;6134984;23;19964;-96
2022/08/16 02:12:59;;;;;;;;;;;20.80;99.90;;;;;;6132354;23;20411;-96
2022/08/16 02:15:29;;;;;;;;;;;20.80;99.90;;;;;;6067481;23;19945;-95
2022/08/16 02:17:57;;;;;;;;;;;20.70;99.90;;;;;;6047340;23;19954;-96
2022/08/16 02:20:25;;;;;;;;;;;20.70;99.90;;;;;;6048989;23;19925;-96
2022/08/16 02:22:55;;;;;;;;;;;20.60;99.90;;;;;;6056069;23;19996;-96
2022/08/16 02:25:26;;;;;;;;;;;20.60;99.90;;;;;;6057930;23;19988;-96
2022/08/16 02:27:52;;;;;;;;;;;20.50;99.90;;;;;;6046848;23;19924;-96
2022/08/16 02:30:23;;;;;;;;;;;20.50;99.90;;;;;;6045332;23;19926;-96
2022/08/16 02:32:57;;;;;;;;;;;20.40;99.90;;;;;;6055655;23;20330;-96
2022/08/16 02:35:28;;;;;;;;;;;20.30;99.90;;;;;;6059917;23;19977;-96
2022/08/16 02:37:54;;;;;;;;;;;20.30;99.90;;;;;;6062107;23;19922;-96
2022/08/16 02:40:20;;;;;;;;;;;20.20;99.90;;;;;;6030596;23;19921;-96
2022/08/16 02:42:47;;;;;;;;;;;20.30;99.90;;;;;;6031092;23;19917;-96
2022/08/16 02:45:15;;;;;;;;;;;20.20;99.90;;;;;;6055414;23;19942;-96
2022/08/16 02:47:42;;;;;;;;;;;20.20;99.90;;;;;;6052034;23;19956;-96
2022/08/16 02:50:09;;;;;;;;;;;20.10;99.90;;;;;;6052845;23;19925;-96
2022/08/16 02:52:36;;;;;;;;;;;20.20;99.90;;;;;;6049126;23;19921;-96
2022/08/16 02:58:22;;;;;;;;;;;20.20;99.90;;;;;;6098798;23;19925;-96
2022/08/16 03:00:54;;;;;;;;;;;20.20;99.90;;;;;;6052679;23;19922;-96
2022/08/16 03:03:26;;;;;;;;;;;20.30;99.90;;;;;;6053155;23;19921;-96
2022/08/16 03:05:57;;;;;;;;;;;20.10;99.90;;;;;;6088985;23;20007;-96
2022/08/16 03:08:24;;;;;;;;;;;20.20;99.90;;;;;;6134396;23;19927;-96
2022/08/16 03:10:55;;;;;;;;;;;20.10;99.90;;;;;;6137246;23;19917;-96
2022/08/16 03:13:28;;;;;;;;;;;20.00;99.90;;;;;;6135777;23;19983;-96
2022/08/16 03:16:02;;;;;;;;;;;20.00;99.90;;;;;;6156977;23;19951;-96
2022/08/16 03:18:31;;;;;;;;;;;19.90;99.90;;;;;;6130520;23;19928;-96
2022/08/16 03:21:01;;;;;;;;;;;19.90;99.90;;;;;;6109311;23;19928;-96
2022/08/16 03:23:31;;;;;;;;;;;19.80;99.90;;;;;;6134979;23;19931;-96
2022/08/16 03:25:58;;;;;;;;;;;19.80;99.90;;;;;;6145820;23;19917;-96
2022/08/16 03:28:24;;;;;;;;;;;19.80;99.90;;;;;;6114056;23;19928;-96
2022/08/16 03:30:58;;;;;;;;;;;19.80;99.90;;;;;;6140628;23;19920;-96
2022/08/16 03:33:31;;;;;;;;;;;19.60;99.90;;;;;;6118471;23;20297;-96
2022/08/16 03:36:26;;;;;;;;;;;19.70;99.90;;;;;;6150473;23;19924;-96
2022/08/16 03:38:56;;;;;;;;;;;19.60;99.90;;;;;;6138718;23;19916;-96
2022/08/16 03:41:22;;;;;;;;;;;19.60;99.90;;;;;;6130398;23;20354;-96
2022/08/16 03:43:55;;;;;;;;;;;19.50;99.90;;;;;;6083307;23;19996;-96
2022/08/16 03:46:24;;;;;;;;;;;19.50;99.90;;;;;;6131120;23;19917;-96
2022/08/16 03:49:02;;;;;;;;;;;19.40;99.90;;;;;;6110702;23;19988;-96
2022/08/16 03:54:58;;;;;;;;;;;19.40;99.90;;;;;;6163446;22;20023;-81
2022/08/16 03:57:24;;;;;;;;;;;19.40;99.90;;;;;;6115509;23;20355;-81
2022/08/16 03:59:59;;;;;;;;;;;19.40;99.90;;;;;;6145889;23;19951;-80
2022/08/16 04:02:54;;;;;;;;;;;19.30;99.90;;;;;;6141305;23;19920;-80
2022/08/16 04:05:35;;;;;;;;;;;19.30;99.90;;;;;;6195068;23;20336;-81
2022/08/16 04:08:25;;;;;;;;;;;19.30;99.90;;;;;;6173269;23;20804;-81
2022/08/16 04:18:40;;;;;;;;;;;;;;;;;;;;;
2022/08/16 04:21:57;;;;;;;;;;;;;;;;;;;;;
2022/08/16 04:25:08;;;;;;;;;;;19.20;99.90;;;;;;5963701;23;19960;-80
2022/08/16 04:27:48;;;;;;;;;;;19.00;99.90;;;;;;6012732;23;20419;-81
2022/08/16 04:34:46;;;;;;;;;;;;;;;;;;;;;
2022/08/16 04:41:35;;;;;;;;;;;19.00;99.90;;;;;;5761527;24;20408;-81
2022/08/16 04:47:12;;;;;;;;;;;18.90;99.90;;;;;;5943145;23;19921;-81
2022/08/16 05:00:45;;;;;;;;;;;18.90;99.90;;;;;;6034134;23;19997;-83
2022/08/16 05:03:10;;;;;;;;;;;18.80;99.90;;;;;;6077482;23;19997;-82
2022/08/16 05:05:37;;;;;;;;;;;18.90;99.90;;;;;;6104928;23;20388;-82
2022/08/16 05:18:50;;;;;;;;;;;19.20;99.90;;;;;;5875968;24;20318;-81
2022/08/16 05:21:16;;;;;;;;;;;19.20;99.90;;;;;;6075438;23;19921;-81
2022/08/16 05:24:05;;;;;;;;;;;19.30;99.90;;;;;;6058834;23;20696;-82
2022/08/16 05:30:02;;;;;;;;;;;19.30;99.90;;;;;;6126735;23;20415;-83
2022/08/16 05:32:49;;;;;;;;;;;19.40;99.90;;;;;;6083676;23;19969;-83
2022/08/16 05:35:28;;;;;;;;;;;19.50;99.90;;;;;;6044663;23;19922;-83
2022/08/16 05:38:28;;;;;;;;;;;19.50;99.90;;;;;;6044214;23;20422;-83
2022/08/16 05:40:56;;;;;;;;;;;19.60;99.90;;;;;;6020850;23;19918;-83
2022/08/16 05:44:00;;;;;;;;;;;19.60;99.90;;;;;;6022341;23;20287;-83
2022/08/16 05:50:07;;;;;;;;;;;19.70;99.90;;;;;;6161825;23;19923;-82
2022/08/16 05:58:50;;;;;;;;;;;19.80;99.90;;;;;;6208469;23;19919;-83
2022/08/16 06:04:35;;;;;;;;;;;19.90;99.90;;;;;;6219836;23;19931;-83
2022/08/16 06:07:38;;;;;;;;;;;19.80;99.90;;;;;;6168544;23;19950;-84
2022/08/16 06:10:15;;;;;;;;;;;20.00;99.90;;;;;;6169880;23;20410;-83
2022/08/16 06:19:21;;;;;;;;;;;20.30;99.90;;;;;;6227224;22;19924;-83
2022/08/16 06:21:56;;;;;;;;;;;20.40;99.90;;;;;;6210390;23;20041;-83
2022/08/16 06:24:22;;;;;;;;;;;20.50;99.90;;;;;;6150414;23;20005;-83
2022/08/16 06:30:14;;;;;;;;;;;20.80;99.90;;;;;;6232742;23;19919;-83
2022/08/16 06:38:12;;;;;;;;;;;21.20;99.90;;;;;;6241663;22;19965;-95
2022/08/16 06:40:38;;;;;;;;;;;21.20;99.90;;;;;;6192219;22;20852;-93
2022/08/16 06:43:03;;;;;;;;;;;21.30;99.90;;;;;;6192231;22;19915;-93
2022/08/16 06:45:29;;;;;;;;;;;21.40;99.90;;;;;;6188166;22;19920;-95
2022/08/16 06:47:55;;;;;;;;;;;21.50;99.90;;;;;;6187527;23;19920;-95
2022/08/16 06:50:20;;;;;;;;;;;21.60;99.90;;;;;;6187855;22;19919;-94
2022/08/16 06:52:49;;;;;;;;;;;21.70;99.90;;;;;;6191900;22;19968;-95
2022/08/16 06:55:25;;;;;;;;;;;21.70;99.90;;;;;;6195085;22;19919;-96
2022/08/16 06:57:52;;;;;;;;;;;21.80;99.90;;;;;;6197411;22;19969;-95
2022/08/16 07:00:22;;;;;;;;;;;21.80;99.90;;;;;;6193846;22;19919;-96
2022/08/16 07:02:52;;;;;;;;;;;21.90;99.90;;;;;;6200309;22;19919;-96
2022/08/16 07:05:20;;;;;;;;;;;21.90;99.90;;;;;;6225817;22;19915;-96
2022/08/16 07:07:51;;;;;;;;;;;21.90;99.90;;;;;;6202164;22;19919;-95
2022/08/16 07:10:24;;;;;;;;;;;22.00;99.90;;;;;;6227751;22;19930;-96
2022/08/16 07:12:50;;;;;;;;;;;22.00;99.90;;;;;;6201964;22;19915;-95
2022/08/16 07:15:16;;;;;;;;;;;22.10;99.90;;;;;;6198179;22;20358;-96
2022/08/16 07:17:45;;;;;;;;;;;22.20;99.90;;;;;;6202746;22;19919;-96
2022/08/16 07:20:13;;;;;;;;;;;22.20;99.90;;;;;;6199206;22;19915;-96
2022/08/16 07:22:40;;;;;;;;;;;22.30;99.90;;;;;;6223487;22;19976;-96
2022/08/16 07:25:09;;;;;;;;;;;22.40;99.90;;;;;;6194035;22;20804;-95
2022/08/16 07:27:37;;;;;;;;;;;22.50;99.90;;;;;;6192841;22;19919;-95
2022/08/16 07:30:06;;;;;;;;;;;22.50;99.90;;;;;;6219104;22;20411;-96
2022/08/16 07:32:35;;;;;;;;;;;22.60;99.90;;;;;;6200581;22;19916;-96
2022/08/16 07:35:03;;;;;;;;;;;22.70;99.90;;;;;;6193602;22;19926;-96
2022/08/16 07:37:33;;;;;;;;;;;22.70;99.90;;;;;;6199356;22;19946;-96
2022/08/16 07:39:58;;;;;;;;;;;23.00;99.90;;;;;;6226579;22;19915;-96
2022/08/16 07:42:24;;;;;;;;;;;23.10;99.90;;;;;;6205022;22;20310;-96
2022/08/16 07:44:50;;;;;;;;;;;23.10;98.80;;;;;;6205513;22;19919;-96
2022/08/16 07:47:21;;;;;;;;;;;23.50;98.90;;;;;;6200216;22;19998;-95
2022/08/16 07:49:50;;;;;;;;;;;23.60;98.30;;;;;;6208559;22;19919;-94
2022/08/16 07:52:41;;;;;;;;;;;23.80;98.10;;;;;;6238286;22;19978;-90
2022/08/16 07:55:08;;;;;;;;;;;24.00;96.20;;;;;;6212342;22;19923;-94
2022/08/16 07:57:33;;;;;;;;;;;24.20;97.60;;;;;;6197333;22;20340;-95
2022/08/16 07:59:59;;;;;;;;;;;24.20;96.30;;;;;;6201398;22;19938;-96
2022/08/16 08:02:25;;;;;;;;;;;24.40;95.40;;;;;;6204894;22;19919;-93
2022/08/16 08:04:54;;;;;;;;;;;24.50;94.90;;;;;;6255173;22;19910;-91
2022/08/16 08:07:23;;;;;;;;;;;24.60;95.20;;;;;;6198277;22;19919;-94
2022/08/16 08:09:55;;;;;;;;;;;24.80;95.30;;;;;;6213640;22;19925;-94
2022/08/16 08:12:22;;;;;;;;;;;25.10;94.00;;;;;;6186866;22;19922;-92
2022/08/16 08:14:56;;;;;;;;;;;25.20;92.70;;;;;;6239031;22;19958;-93
2022/08/16 08:17:22;;;;;;;;;;;25.30;92.60;;;;;;6187020;22;19923;-96
2022/08/16 08:19:50;;;;;;;;;;;25.40;92.20;;;;;;6188103;22;20317;-94
2022/08/16 08:22:16;;;;;;;;;;;25.50;93.70;;;;;;6208723;22;20622;-95
2022/08/16 08:24:42;;;;;;;;;;;25.60;90.90;;;;;;6185833;22;19941;-95
2022/08/16 08:27:07;;;;;;;;;;;25.80;90.80;;;;;;6187681;22;19927;-96
2022/08/16 08:29:35;;;;;;;;;;;25.80;88.60;;;;;;6182961;22;19915;-92
2022/08/16 08:32:01;;;;;;;;;;;25.90;90.70;;;;;;6181187;22;20005;-93
2022/08/16 08:34:27;;;;;;;;;;;25.90;86.70;;;;;;6180729;22;19978;-96
2022/08/16 08:36:53;;;;;;;;;;;26.10;89.50;;;;;;6183593;22;19919;-94
2022/08/16 08:39:18;;;;;;;;;;;26.20;81.60;;;;;;6207412;22;19919;-94
2022/08/16 08:41:44;;;;;;;;;;;26.30;82.60;;;;;;6211238;22;19926;-95
2022/08/16 08:44:10;;;;;;;;;;;26.40;83.70;;;;;;6185614;22;19919;-94
2022/08/16 08:46:36;;;;;;;;;;;26.60;80.20;;;;;;6183100;22;20343;-93
2022/08/16 08:49:02;;;;;;;;;;;26.70;83.30;;;;;;6208207;22;19945;-94
2022/08/16 08:51:28;;;;;;;;;;;26.70;80.70;;;;;;6207211;22;20023;-93
2022/08/16 08:53:53;;;;;;;;;;;26.80;81.70;;;;;;6182968;22;19951;-93
2022/08/16 08:56:19;;;;;;;;;;;27.00;84.30;;;;;;6209473;22;19923;-95
2022/08/16 08:58:45;;;;;;;;;;;27.10;83.10;;;;;;6183890;22;19919;-95
2022/08/16 09:01:10;;;;;;;;;;;27.30;80.30;;;;;;6210341;22;19916;-94
2022/08/16 09:03:36;;;;;;;;;;;27.40;76.30;;;;;;6182343;22;19919;-95
2022/08/16 09:06:05;;;;;;;;;;;27.50;81.30;;;;;;6188002;22;20335;-94
2022/08/16 09:08:31;;;;;;;;;;;27.60;73.40;;;;;;6185767;22;19923;-96
2022/08/16 09:10:57;;;;;;;;;;;27.70;78.10;;;;;;6214002;22;19999;-93
2022/08/16 09:13:23;;;;;;;;;;;27.70;76.10;;;;;;6188609;22;19923;-96
2022/08/16 09:15:54;;;;;;;;;;;27.90;72.60;;;;;;6190121;22;20339;-95
2022/08/16 09:18:21;;;;;;;;;;;28.10;65.50;;;;;;6186264;22;19915;-94
2022/08/16 09:20:46;;;;;;;;;;;28.00;68.70;;;;;;6187251;22;19919;-93
2022/08/16 09:23:12;;;;;;;;;;;28.10;66.90;;;;;;6190061;22;19925;-96
2022/08/16 09:25:38;;;;;;;;;;;28.20;63.30;;;;;;6187471;22;19919;-94
2022/08/16 09:28:03;;;;;;;;;;;28.20;67.50;;;;;;6189414;22;19990;-96
2022/08/16 09:30:30;;;;;;;;;;;28.40;65.60;;;;;;6189059;22;19937;-95
2022/08/16 09:32:56;;;;;;;;;;;28.60;68.80;;;;;;6190771;22;19920;-96
2022/08/16 09:35:21;;;;;;;;;;;28.60;68.80;;;;;;6241926;22;19961;-96
2022/08/16 09:37:47;;;;;;;;;;;28.70;61.30;;;;;;6193287;22;19927;-96
2022/08/16 09:40:13;;;;;;;;;;;28.80;57.20;;;;;;6190736;22;20327;-94
2022/08/16 09:42:39;;;;;;;;;;;29.00;56.80;;;;;;6192467;22;19923;-95
2022/08/16 09:45:07;;;;;;;;;;;28.90;53.20;;;;;;6195669;22;19996;-94
2022/08/16 09:47:39;;;;;;;;;;;28.90;55.70;;;;;;6216332;22;19922;-95
2022/08/16 09:50:06;;;;;;;;;;;29.00;56.30;;;;;;6219103;22;20324;-95
2022/08/16 09:52:36;;;;;;;;;;;28.90;56.10;;;;;;6193710;22;19919;-96
2022/08/16 09:55:06;;;;;;;;;;;28.90;56.30;;;;;;6218433;22;20235;-94
2022/08/16 09:57:34;;;;;;;;;;;29.00;53.10;;;;;;6191352;22;19977;-94
2022/08/16 10:00:00;;;;;;;;;;;29.00;54.10;;;;;;6187505;22;20293;-96
2022/08/16 13:57:00;;;;;;;;;;;32.20;38.90;;;;;;6251108;22;19920;-94
2022/08/16 13:59:52;;;;;;;;;;;32.00;38.20;;;;;;6205603;22;19925;-95
2022/08/16 14:02:30;;;;;;;;;;;32.00;38.30;;;;;;6237052;22;19916;-95
2022/08/16 14:05:03;;;;;;;;;;;32.00;39.40;;;;;;6202817;22;19930;-94
2022/08/16 14:07:52;;;;;;;;;;;32.00;39.40;;;;;;6177775;23;19927;-95
2022/08/16 14:10:36;;;;;;;;;;;32.00;39.00;;;;;;6161522;23;19958;-96
2022/08/16 14:15:58;;;;;;;;;;;31.90;38.60;;;;;;6188543;23;19919;-95
2022/08/16 14:19:06;;;;;;;;;;;;;;;;;;;;;
2022/08/16 14:21:53;;;;;;;;;;;31.90;38.10;;;;;;6205491;23;19981;-94
2022/08/16 14:24:40;;;;;;;;;;;32.10;39.90;;;;;;6179262;23;19927;-95
2022/08/16 14:27:38;;;;;;;;;;;32.10;38.90;;;;;;6160099;23;19920;-94
2022/08/16 18:25:50;;;;;;;;;;;26.80;64.40;;;;;;6251739;22;19922;-95
2022/08/16 18:28:18;;;;;;;;;;;26.70;64.80;;;;;;6271161;22;19919;-94
2022/08/16 18:30:44;;;;;;;;;;;26.60;66.10;;;;;;6269407;22;19950;-95
2022/08/16 18:33:10;;;;;;;;;;;26.50;65.80;;;;;;6246985;22;19930;-95
2022/08/16 18:35:35;;;;;;;;;;;26.50;66.30;;;;;;6249486;22;19919;-95
2022/08/16 18:38:03;;;;;;;;;;;26.40;67.40;;;;;;6248245;22;19933;-95
2022/08/16 18:40:34;;;;;;;;;;;26.30;68.50;;;;;;6245098;22;19918;-88
2022/08/16 18:43:09;;;;;;;;;;;26.20;69.50;;;;;;6274230;22;19952;-90
2022/08/16 18:45:36;;;;;;;;;;;26.10;69.30;;;;;;6240202;22;20051;-87
2022/08/16 18:48:02;;;;;;;;;;;26.10;71.20;;;;;;6243177;22;20723;-88
2022/08/16 18:50:30;;;;;;;;;;;26.00;71.70;;;;;;6236498;22;19914;-89
2022/08/16 18:53:02;;;;;;;;;;;25.90;73.00;;;;;;6269342;22;20353;-88
2022/08/16 18:55:28;;;;;;;;;;;25.80;73.00;;;;;;6240043;22;19989;-88
2022/08/16 18:57:54;;;;;;;;;;;25.60;74.60;;;;;;6293659;22;20076;-89
2022/08/16 19:00:21;;;;;;;;;;;25.50;75.30;;;;;;6239514;22;19957;-88
2022/08/16 19:02:46;;;;;;;;;;;25.40;76.40;;;;;;6242182;22;19997;-88
2022/08/16 19:05:23;;;;;;;;;;;25.20;75.20;;;;;;6292370;22;19961;-89
2022/08/16 19:07:48;;;;;;;;;;;25.20;75.80;;;;;;6237522;22;19925;-88
2022/08/16 19:10:14;;;;;;;;;;;25.00;76.80;;;;;;6210729;22;19918;-88
2022/08/16 19:12:42;;;;;;;;;;;24.90;75.50;;;;;;6210827;22;20021;-89
2022/08/16 19:15:14;;;;;;;;;;;24.80;75.60;;;;;;6210124;22;19918;-88
2022/08/16 19:17:40;;;;;;;;;;;24.60;76.90;;;;;;6237637;22;19966;-88
2022/08/16 19:20:06;;;;;;;;;;;24.50;77.50;;;;;;6212418;22;20415;-88
2022/08/16 19:22:32;;;;;;;;;;;24.40;78.70;;;;;;6208635;22;19919;-88
2022/08/16 19:24:57;;;;;;;;;;;24.30;79.70;;;;;;6211542;22;19930;-88
2022/08/16 19:27:23;;;;;;;;;;;24.20;81.00;;;;;;6259060;22;19919;-88
2022/08/16 19:30:09;;;;;;;;;;;24.10;84.90;;;;;;6207957;22;20033;-89
2022/08/16 19:32:38;;;;;;;;;;;24.00;87.00;;;;;;6238916;22;19971;-88
2022/08/16 19:35:08;;;;;;;;;;;23.90;86.20;;;;;;6232074;22;20009;-88
2022/08/16 19:37:33;;;;;;;;;;;23.80;84.60;;;;;;6235863;22;20186;-79
2022/08/16 19:39:59;;;;;;;;;;;23.80;88.20;;;;;;6238658;22;19922;-79
2022/08/16 19:42:25;;;;;;;;;;;23.70;84.20;;;;;;6238721;22;19931;-79
2022/08/16 19:44:51;;;;;;;;;;;23.70;84.70;;;;;;6287521;22;20200;-79
2022/08/16 19:47:17;;;;;;;;;;;23.60;90.00;;;;;;6266874;22;20354;-85
2022/08/16 19:49:43;;;;;;;;;;;23.50;83.90;;;;;;6216129;22;19919;-86
2022/08/16 19:52:39;;;;;;;;;;;;;;;;;;;;;
2022/08/16 19:58:34;;;;;;;;;;;23.20;88.80;;;;;;6209139;22;20036;-86
2022/08/16 20:01:02;;;;;;;;;;;23.10;86.70;;;;;;6235788;22;19942;-87
2022/08/16 20:03:30;;;;;;;;;;;23.10;88.40;;;;;;6210810;22;19915;-87
2022/08/16 20:05:57;;;;;;;;;;;23.00;86.80;;;;;;6233836;22;19994;-87
2022/08/16 20:08:23;;;;;;;;;;;23.00;86.80;;;;;;6207817;22;19944;-86
2022/08/16 20:10:58;;;;;;;;;;;22.90;90.20;;;;;;6238298;22;19989;-86
2022/08/16 20:13:24;;;;;;;;;;;22.90;90.30;;;;;;6233868;22;19988;-85
2022/08/16 20:15:51;;;;;;;;;;;22.80;90.20;;;;;;6210415;22;19919;-88
2022/08/16 21:26:48;;;;;;;;;;;22.20;96.30;;;;;;6189266;23;19924;-94
2022/08/16 21:29:15;;;;;;;;;;;22.10;96.40;;;;;;6174426;23;19958;-95
2022/08/16 21:31:42;;;;;;;;;;;22.10;97.00;;;;;;6148293;23;19920;-95
2022/08/16 21:34:08;;;;;;;;;;;22.10;97.00;;;;;;6150473;23;19920;-95
2022/08/16 21:36:34;;;;;;;;;;;22.00;97.00;;;;;;6164568;23;20031;-95
2022/08/16 21:39:19;;;;;;;;;;;22.00;96.60;;;;;;6173821;23;20347;-95
2022/08/16 21:41:46;;;;;;;;;;;22.00;96.50;;;;;;6146546;23;20802;-95
2022/08/16 21:44:12;;;;;;;;;;;21.90;98.70;;;;;;6174705;23;19975;-94
2022/08/16 21:46:45;;;;;;;;;;;21.90;98.00;;;;;;6145850;23;19919;-95
2022/08/16 21:49:12;;;;;;;;;;;21.90;98.10;;;;;;6151415;23;19916;-95
2022/08/16 21:51:38;;;;;;;;;;;21.90;97.90;;;;;;6147641;23;19923;-95
2022/08/16 21:54:05;;;;;;;;;;;21.90;99.60;;;;;;6149958;23;20350;-96
2022/08/16 21:56:31;;;;;;;;;;;21.80;99.90;;;;;;6146649;23;19963;-95
2022/08/16 21:59:15;;;;;;;;;;;21.80;99.90;;;;;;6179529;23;19914;-94
2022/08/16 22:01:42;;;;;;;;;;;21.80;99.90;;;;;;6194828;23;20014;-95
2022/08/16 22:04:09;;;;;;;;;;;21.80;99.90;;;;;;6115405;23;19920;-95
2022/08/16 22:06:37;;;;;;;;;;;21.80;99.90;;;;;;6098468;23;19928;-95
2022/08/16 22:09:04;;;;;;;;;;;21.70;99.90;;;;;;6087822;23;19925;-95
2022/08/16 22:11:30;;;;;;;;;;;21.70;99.90;;;;;;6084069;23;20087;-95
2022/08/16 22:14:00;;;;;;;;;;;21.60;99.90;;;;;;6063685;23;19956;-94
2022/08/16 22:16:27;;;;;;;;;;;21.60;99.90;;;;;;6063709;23;19921;-95
2022/08/16 22:18:53;;;;;;;;;;;21.60;99.90;;;;;;6089000;23;19960;-95
2022/08/16 22:21:20;;;;;;;;;;;21.50;99.90;;;;;;6062646;23;19921;-95
2022/08/16 22:23:47;;;;;;;;;;;21.40;99.90;;;;;;6087118;23;20333;-94
2022/08/16 22:26:13;;;;;;;;;;;21.40;99.90;;;;;;6086901;23;20261;-95
2022/08/16 22:28:42;;;;;;;;;;;21.30;99.90;;;;;;6091056;23;19994;-94
2022/08/16 22:31:11;;;;;;;;;;;21.30;99.90;;;;;;6116906;23;19916;-94
2022/08/16 22:33:36;;;;;;;;;;;21.20;99.90;;;;;;6089239;23;20395;-94
2022/08/16 22:36:03;;;;;;;;;;;21.10;99.90;;;;;;6092751;23;19920;-94
2022/08/16 22:38:29;;;;;;;;;;;21.00;99.90;;;;;;6089534;23;19928;-94
2022/08/16 22:40:59;;;;;;;;;;;21.00;99.90;;;;;;6098180;23;20316;-94
2022/08/16 22:43:28;;;;;;;;;;;20.90;99.90;;;;;;6194380;23;19920;-95
2022/08/16 22:45:54;;;;;;;;;;;20.80;99.90;;;;;;6148335;23;19926;-95
2022/08/16 22:48:21;;;;;;;;;;;20.80;99.90;;;;;;6194717;23;20388;-96
2022/08/16 22:50:49;;;;;;;;;;;20.80;99.90;;;;;;6148315;23;19919;-95
2022/08/16 22:53:17;;;;;;;;;;;20.80;99.90;;;;;;6199059;23;19977;-94
2022/08/16 22:55:47;;;;;;;;;;;20.80;99.90;;;;;;6196707;23;19927;-94
2022/08/16 22:58:14;;;;;;;;;;;20.70;99.90;;;;;;6198151;23;19915;-95
2022/08/16 23:00:43;;;;;;;;;;;20.70;99.90;;;;;;6195603;23;20707;-94
2022/08/16 23:03:29;;;;;;;;;;;20.60;99.90;;;;;;6197673;23;19931;-94
2022/08/16 23:05:59;;;;;;;;;;;20.60;99.90;;;;;;6196696;23;20210;-95
2022/08/16 23:08:26;;;;;;;;;;;20.60;99.90;;;;;;6147119;23;19991;-94
2022/08/16 23:10:54;;;;;;;;;;;20.60;99.90;;;;;;6149909;23;19926;-94
2022/08/16 23:13:28;;;;;;;;;;;20.50;99.90;;;;;;6153040;23;19961;-94
2022/08/16 23:15:56;;;;;;;;;;;20.50;99.90;;;;;;6150387;23;19982;-94
2022/08/16 23:18:23;;;;;;;;;;;20.50;99.90;;;;;;6171840;23;19924;-94
2022/08/16 23:20:50;;;;;;;;;;;20.40;99.90;;;;;;6171731;23;19950;-94
2022/08/16 23:23:16;;;;;;;;;;;20.40;99.90;;;;;;6184055;23;19919;-93
2022/08/16 23:25:44;;;;;;;;;;;20.40;99.90;;;;;;6158557;23;20525;-95
2022/08/16 23:28:10;;;;;;;;;;;20.40;99.90;;;;;;6147956;23;19959;-94
2022/08/16 23:30:37;;;;;;;;;;;20.30;99.90;;;;;;6146310;23;19920;-94
2022/08/16 23:33:04;;;;;;;;;;;20.30;99.90;;;;;;6174959;23;19944;-94
2022/08/16 23:35:38;;;;;;;;;;;20.20;99.90;;;;;;6147656;23;19924;-94
2022/08/16 23:38:05;;;;;;;;;;;20.20;99.90;;;;;;6177525;23;20006;-94
2022/08/16 23:40:30;;;;;;;;;;;20.10;99.90;;;;;;6147412;23;19970;-93
2022/08/16 23:43:04;;;;;;;;;;;20.10;99.90;;;;;;6173091;23;20327;-92
2022/08/16 23:45:34;;;;;;;;;;;20.10;99.90;;;;;;6146265;23;19924;-93
2022/08/16 23:48:01;;;;;;;;;;;20.10;99.90;;;;;;6200540;23;20015;-94
2022/08/16 23:50:27;;;;;;;;;;;20.00;99.90;;;;;;6150903;23;19990;-94
2022/08/16 23:53:11;;;;;;;;;;;20.10;99.90;;;;;;6153689;23;19951;-94
2022/08/16 23:55:56;;;;;;;;;;;20.00;99.90;;;;;;6199653;23;19998;-94
2022/08/16 23:58:25;;;;;;;;;;;20.10;99.90;;;;;;6174727;23;19930;-94
